createdAt,value
2019-05-07T00:00:43.758Z,24.50
2019-05-07T00:03:09.842Z,26.00
2019-05-07T00:05:36.174Z,27.77
2019-05-07T00:08:02.994Z,27.50
2019-05-07T00:10:29.771Z,25.17
2019-05-07T00:12:58.117Z,27.22
2019-05-07T00:15:24.398Z,25.65
2019-05-07T00:17:52.216Z,25.70
2019-05-07T00:20:18.606Z,22.95
2019-05-07T00:22:44.908Z,27.20
2019-05-07T00:25:12.389Z,24.47
2019-05-07T00:27:38.808Z,25.45
2019-05-07T00:30:07.111Z,22.40
2019-05-07T00:32:35.555Z,23.47
2019-05-07T00:35:02.517Z,25.57
2019-05-07T00:37:28.961Z,27.87
2019-05-07T00:39:55.250Z,25.32
2019-05-07T00:42:22.177Z,27.67
2019-05-07T00:44:48.543Z,29.72
2019-05-07T00:47:14.822Z,25.23
2019-05-07T00:49:42.565Z,31.57
2019-05-07T00:52:11.410Z,30.02
2019-05-07T00:54:36.927Z,30.12
2019-05-07T00:57:03.255Z,26.45
2019-05-07T00:59:29.557Z,27.62
2019-05-07T01:01:55.846Z,28.12
2019-05-07T01:04:22.936Z,25.90
2019-05-07T01:06:49.390Z,27.70
2019-05-07T01:09:15.709Z,29.35
2019-05-07T01:11:42.888Z,32.38
2019-05-07T01:14:09.420Z,29.82
2019-05-07T01:16:35.662Z,30.15
2019-05-07T01:19:02.229Z,31.07
2019-05-07T01:21:28.567Z,29.80
2019-05-07T01:23:54.841Z,39.13
2019-05-07T01:26:21.882Z,31.75
2019-05-07T01:28:48.503Z,30.32
2019-05-07T01:31:14.758Z,30.15
2019-05-07T01:33:42.414Z,29.05
2019-05-07T01:36:08.891Z,29.60
2019-05-07T01:38:35.189Z,31.95
2019-05-07T01:41:02.885Z,32.70
2019-05-07T01:43:29.361Z,30.00
2019-05-07T01:45:55.644Z,30.45
2019-05-07T01:48:23.013Z,28.83
2019-05-07T01:50:49.610Z,30.75
2019-05-07T01:53:15.856Z,26.33
2019-05-07T01:55:42.822Z,31.57
2019-05-07T01:58:09.383Z,29.75
2019-05-07T02:00:35.665Z,27.17
2019-05-07T02:03:02.828Z,29.10
2019-05-07T02:05:29.242Z,34.13
2019-05-07T02:07:55.511Z,29.12
2019-05-07T02:10:22.737Z,29.12
2019-05-07T02:12:49.118Z,30.57
2019-05-07T02:15:15.392Z,30.12
2019-05-07T02:17:43.022Z,28.83
2019-05-07T02:20:09.545Z,26.93
2019-05-07T02:22:35.956Z,30.70
2019-05-07T02:25:03.282Z,28.57
2019-05-07T02:27:29.765Z,25.40
2019-05-07T02:29:56.040Z,29.82
2019-05-07T02:32:24.060Z,30.40
2019-05-07T02:34:50.284Z,30.02
2019-05-07T02:37:16.732Z,27.25
2019-05-07T02:39:44.281Z,29.60
2019-05-07T02:42:13.083Z,32.65
2019-05-07T02:44:38.919Z,25.08
2019-05-07T02:47:05.217Z,30.88
2019-05-07T02:49:32.768Z,30.82
2019-05-07T02:52:04.146Z,27.87
2019-05-07T02:54:32.591Z,29.52
2019-05-07T02:56:57.676Z,33.65
2019-05-07T02:59:24.420Z,32.42
2019-05-07T03:01:53.470Z,34.25
2019-05-07T03:04:18.712Z,33.35
2019-05-07T03:06:44.982Z,30.57
2019-05-07T03:09:14.136Z,31.52
2019-05-07T03:11:39.259Z,36.75
2019-05-07T03:14:05.546Z,34.85
2019-05-07T03:16:39.668Z,34.35
2019-05-07T03:19:04.122Z,35.25
2019-05-07T03:21:32.739Z,36.13
2019-05-07T03:23:58.072Z,34.15
2019-05-07T03:26:24.374Z,36.30
2019-05-07T03:28:53.437Z,37.50
2019-05-07T03:31:18.634Z,33.65
2019-05-07T03:33:47.056Z,34.08
2019-05-07T03:36:16.492Z,41.23
2019-05-07T03:38:43.710Z,36.08
2019-05-07T03:41:08.853Z,40.38
2019-05-07T03:43:35.125Z,39.45
2019-05-07T03:46:03.632Z,33.73
2019-05-07T03:48:29.431Z,36.98
2019-05-07T03:50:55.681Z,32.93
2019-05-07T03:53:23.204Z,37.05
2019-05-07T03:55:49.902Z,41.77
2019-05-07T03:58:18.608Z,37.55
2019-05-07T04:00:44.866Z,35.90
2019-05-07T04:03:13.929Z,35.38
2019-05-07T04:05:39.210Z,38.20
2019-05-07T04:08:07.180Z,40.40
2019-05-07T04:10:34.041Z,43.28
2019-05-07T04:13:00.525Z,41.02
2019-05-07T04:15:26.801Z,38.55
2019-05-07T04:17:53.715Z,37.50
2019-05-07T04:20:20.131Z,37.60
2019-05-07T04:22:46.384Z,38.75
2019-05-07T04:25:13.330Z,41.23
2019-05-07T04:27:44.180Z,36.28
2019-05-07T04:30:07.835Z,37.73
2019-05-07T04:32:34.091Z,36.38
2019-05-07T04:35:03.582Z,42.30
2019-05-07T04:37:28.352Z,38.05
2019-05-07T04:39:54.635Z,39.20
2019-05-07T04:42:24.026Z,38.70
2019-05-07T04:44:48.975Z,38.25
2019-05-07T04:47:32.696Z,39.90
2019-05-07T04:49:43.657Z,41.20
2019-05-07T04:52:12.503Z,37.85
2019-05-07T04:54:38.455Z,43.85
2019-05-07T04:57:04.767Z,39.20
2019-05-07T04:59:32.995Z,36.65
2019-05-07T05:01:59.014Z,44.08
2019-05-07T05:04:30.756Z,42.13
2019-05-07T05:06:53.286Z,44.10
2019-05-07T05:09:19.672Z,39.92
2019-05-07T05:11:46.032Z,38.40
2019-05-07T05:14:13.710Z,39.05
2019-05-07T05:16:42.400Z,45.10
2019-05-07T05:19:08.216Z,39.40
2019-05-07T05:21:34.478Z,43.40
2019-05-07T05:24:01.809Z,40.35
2019-05-07T05:26:28.332Z,42.35
2019-05-07T05:28:54.584Z,39.78
2019-05-07T05:31:22.293Z,40.10
2019-05-07T05:33:48.694Z,40.90
2019-05-07T05:36:14.956Z,37.95
2019-05-07T05:38:42.341Z,44.35
2019-05-07T05:41:08.990Z,37.48
2019-05-07T05:43:35.258Z,37.50
2019-05-07T05:46:02.702Z,38.20
2019-05-07T05:48:29.268Z,43.80
2019-05-07T05:50:55.559Z,42.98
2019-05-07T05:53:21.943Z,42.98
2019-05-07T05:55:52.700Z,40.85
2019-05-07T05:58:18.470Z,44.85
2019-05-07T06:00:44.742Z,43.28
2019-05-07T06:03:11.946Z,37.98
2019-05-07T06:05:38.334Z,39.80
2019-05-07T06:08:04.632Z,40.15
2019-05-07T06:10:32.896Z,38.88
2019-05-07T06:12:58.946Z,44.18
2019-05-07T06:15:25.196Z,38.92
2019-05-07T06:17:51.926Z,39.10
2019-05-07T06:20:18.307Z,37.75
2019-05-07T06:22:44.586Z,41.10
2019-05-07T06:25:14.447Z,42.20
2019-05-07T06:27:38.830Z,41.90
2019-05-07T06:30:05.191Z,60.52
2019-05-07T06:32:32.058Z,51.45
2019-05-07T06:34:58.503Z,42.15
2019-05-07T06:37:24.851Z,45.75
2019-05-07T06:39:52.941Z,43.40
2019-05-07T06:42:19.126Z,45.35
2019-05-07T06:44:45.404Z,47.08
2019-05-07T06:47:13.055Z,44.80
2019-05-07T06:49:39.518Z,38.02
2019-05-07T06:52:05.775Z,40.20
2019-05-07T06:54:32.226Z,50.70
2019-05-07T06:56:58.594Z,40.52
2019-05-07T06:59:24.893Z,37.88
2019-05-07T07:01:52.986Z,36.33
2019-05-07T07:04:19.146Z,36.25
2019-05-07T07:06:45.391Z,39.13
2019-05-07T07:09:12.657Z,39.35
2019-05-07T07:11:39.120Z,36.03
2019-05-07T07:14:05.446Z,35.10
2019-05-07T07:16:37.026Z,40.43
2019-05-07T07:19:03.488Z,39.53
2019-05-07T07:21:29.843Z,35.98
2019-05-07T07:23:56.114Z,38.80
2019-05-07T07:26:22.387Z,40.70
2019-05-07T07:28:48.741Z,36.17
2019-05-07T07:31:15.030Z,36.10
2019-05-07T07:33:43.553Z,37.78
2019-05-07T07:36:09.342Z,39.05
2019-05-07T07:38:35.614Z,35.60
2019-05-07T07:41:03.868Z,39.78
2019-05-07T07:43:29.878Z,35.15
2019-05-07T07:45:56.421Z,36.00
2019-05-07T07:48:24.920Z,32.67
2019-05-07T07:50:52.978Z,33.65
2019-05-07T07:53:19.243Z,34.03
2019-05-07T07:55:45.531Z,35.83
2019-05-07T07:58:12.111Z,35.20
2019-05-07T08:00:38.564Z,36.03
2019-05-07T08:03:04.830Z,34.43
2019-05-07T08:05:35.172Z,30.57
2019-05-07T08:08:02.326Z,35.40
2019-05-07T08:10:28.801Z,31.60
2019-05-07T08:12:55.097Z,25.85
2019-05-07T08:15:24.476Z,26.73
2019-05-07T08:17:55.257Z,26.90
2019-05-07T08:20:22.228Z,31.87
2019-05-07T08:22:48.670Z,25.77
2019-05-07T08:25:14.975Z,28.70
2019-05-07T08:27:41.987Z,24.98
2019-05-07T08:32:42.525Z,26.87
2019-05-07T08:35:08.982Z,26.07
2019-05-07T08:37:35.271Z,25.62
2019-05-07T08:40:03.063Z,24.02
2019-05-07T08:42:31.905Z,28.07
2019-05-07T08:44:57.610Z,24.70
2019-05-07T08:47:23.934Z,26.85
2019-05-07T08:49:52.230Z,29.75
2019-05-07T08:52:18.179Z,23.80
2019-05-07T08:54:44.454Z,24.65
2019-05-07T08:57:12.196Z,24.35
2019-05-07T08:59:38.720Z,22.80
2019-05-07T09:02:05.050Z,22.32
2019-05-07T09:04:32.686Z,24.63
2019-05-07T09:06:59.316Z,24.52
2019-05-07T09:09:27.672Z,25.43
2019-05-07T09:11:53.950Z,26.37
2019-05-07T09:14:22.862Z,24.60
2019-05-07T09:16:48.635Z,23.73
2019-05-07T09:19:14.922Z,25.27
2019-05-07T09:21:42.893Z,23.70
2019-05-07T09:24:09.399Z,26.87
2019-05-07T09:26:35.657Z,30.85
2019-05-07T09:29:02.639Z,27.27
2019-05-07T09:31:29.030Z,23.92
2019-05-07T09:33:55.338Z,25.05
2019-05-07T09:36:22.813Z,28.25
2019-05-07T09:38:58.366Z,25.65
2019-05-07T09:41:17.255Z,24.30
2019-05-07T09:43:43.583Z,28.02
2019-05-07T09:46:09.890Z,27.58
2019-05-07T09:48:36.211Z,23.07
2019-05-07T09:51:02.649Z,28.02
2019-05-07T09:53:28.940Z,27.40
2019-05-07T09:55:55.207Z,26.82
2019-05-07T09:58:35.010Z,25.00
2019-05-07T10:00:49.511Z,24.63
2019-05-07T10:03:15.818Z,23.70
2019-05-07T10:05:42.716Z,26.82
2019-05-07T10:08:09.249Z,25.95
2019-05-07T10:10:35.530Z,23.67
2019-05-07T10:13:01.961Z,29.70
2019-05-07T10:15:28.334Z,24.85
2019-05-07T10:17:54.832Z,27.10
2019-05-07T10:20:22.648Z,24.63
2019-05-07T10:22:49.261Z,28.17
2019-05-07T10:25:15.571Z,20.37
2019-05-07T10:27:42.001Z,25.60
2019-05-07T10:30:08.294Z,25.60
2019-05-07T10:32:34.567Z,25.88
2019-05-07T10:35:02.149Z,22.80
2019-05-07T10:37:28.714Z,24.35
2019-05-07T10:39:55.038Z,25.12
2019-05-07T10:42:22.705Z,25.92
2019-05-07T10:44:49.334Z,25.92
2019-05-07T10:47:15.595Z,25.08
2019-05-07T10:49:42.278Z,24.95
2019-05-07T10:52:12.562Z,25.62
2019-05-07T10:54:38.991Z,23.62
2019-05-07T10:57:05.268Z,20.30
2019-05-07T10:59:31.506Z,24.72
2019-05-07T11:01:57.788Z,22.60
2019-05-07T11:04:24.089Z,26.77
2019-05-07T11:06:52.167Z,23.35
2019-05-07T11:09:18.360Z,26.12
2019-05-07T11:11:44.628Z,26.95
2019-05-07T11:14:12.286Z,24.67
2019-05-07T11:16:38.743Z,26.68
2019-05-07T11:19:04.984Z,26.25
2019-05-07T11:21:33.352Z,29.25
2019-05-07T11:23:59.249Z,30.10
2019-05-07T11:26:25.532Z,27.30
2019-05-07T11:28:51.810Z,24.70
2019-05-07T11:31:18.096Z,21.97
2019-05-07T11:33:44.400Z,22.05
2019-05-07T11:36:10.856Z,26.23
2019-05-07T11:38:37.351Z,25.32
2019-05-07T11:41:05.903Z,21.40
2019-05-07T11:43:32.638Z,24.27
2019-05-07T11:45:59.278Z,23.02
2019-05-07T11:48:25.690Z,25.82
2019-05-07T11:51:01.387Z,26.17
2019-05-07T11:53:21.978Z,22.10
2019-05-07T11:55:48.039Z,26.37
2019-05-07T11:58:14.291Z,24.02
2019-05-07T12:00:42.480Z,27.62
2019-05-07T12:03:08.579Z,27.50
2019-05-07T12:05:34.881Z,25.57
2019-05-07T12:08:02.395Z,25.72
2019-05-07T12:10:28.874Z,27.27
2019-05-07T12:12:55.182Z,28.45
2019-05-07T12:15:21.817Z,26.33
2019-05-07T12:17:48.206Z,24.50
2019-05-07T12:20:14.496Z,26.25
2019-05-07T12:22:42.422Z,26.42
2019-05-07T12:25:08.878Z,24.25
2019-05-07T12:27:35.179Z,25.60
2019-05-07T12:30:01.455Z,28.12
2019-05-07T12:32:27.756Z,25.80
2019-05-07T12:34:54.054Z,30.43
2019-05-07T12:37:22.428Z,23.65
2019-05-07T12:39:48.335Z,27.62
2019-05-07T12:42:14.615Z,28.35
2019-05-07T12:44:42.477Z,30.02
2019-05-07T12:47:09.027Z,29.35
2019-05-07T12:49:35.351Z,25.12
2019-05-07T12:52:02.270Z,32.42
2019-05-07T12:54:28.842Z,28.30
2019-05-07T12:56:55.115Z,25.57
2019-05-07T12:59:21.891Z,26.55
2019-05-07T13:01:48.444Z,29.67
2019-05-07T13:04:14.754Z,32.13
2019-05-07T13:06:41.020Z,28.23
2019-05-07T13:09:07.326Z,25.10
2019-05-07T13:11:33.623Z,28.17
2019-05-07T13:14:02.001Z,23.95
2019-05-07T13:16:28.057Z,23.87
2019-05-07T13:18:54.383Z,27.25
2019-05-07T13:21:22.551Z,26.60
2019-05-07T13:23:48.781Z,23.65
2019-05-07T13:26:15.189Z,24.27
2019-05-07T13:28:41.956Z,22.58
2019-05-07T13:31:09.508Z,28.12
2019-05-07T13:33:35.783Z,25.75
2019-05-07T13:36:02.356Z,27.85
2019-05-07T13:38:28.720Z,24.32
2019-05-07T13:40:55.019Z,23.77
2019-05-07T13:43:23.036Z,22.90
2019-05-07T13:45:49.335Z,22.45
2019-05-07T13:48:15.591Z,26.73
2019-05-07T13:50:42.030Z,22.80
2019-05-07T13:53:08.432Z,22.25
2019-05-07T13:55:34.736Z,18.60
2019-05-07T13:58:01.029Z,24.07
2019-05-07T14:00:27.289Z,24.25
2019-05-07T14:02:54.936Z,20.52
2019-05-07T14:05:21.802Z,24.60
2019-05-07T14:07:48.228Z,19.98
2019-05-07T14:10:14.492Z,23.02
2019-05-07T14:12:42.526Z,21.30
2019-05-07T14:15:08.983Z,18.25
2019-05-07T14:17:35.283Z,17.42
2019-05-07T14:20:01.826Z,20.68
2019-05-07T14:22:31.675Z,24.63
2019-05-07T14:24:57.551Z,16.27
2019-05-07T14:27:23.847Z,26.35
2019-05-07T14:29:52.040Z,19.40
2019-05-07T14:32:18.161Z,19.00
2019-05-07T14:34:44.461Z,20.77
2019-05-07T14:37:12.908Z,22.05
2019-05-07T14:39:39.391Z,19.37
2019-05-07T14:42:05.712Z,20.90
2019-05-07T14:44:31.999Z,16.42
2019-05-07T14:46:58.253Z,18.25
2019-05-07T14:49:24.562Z,18.48
2019-05-07T14:51:53.907Z,20.32
2019-05-07T14:54:18.844Z,22.35
2019-05-07T14:56:45.187Z,18.75
2019-05-07T14:59:12.795Z,20.72
2019-05-07T15:01:39.246Z,18.70
2019-05-07T15:04:05.534Z,17.60
2019-05-07T15:06:32.556Z,19.35
2019-05-07T15:08:59.081Z,18.05
2019-05-07T15:11:25.364Z,15.90
2019-05-07T15:13:52.181Z,15.10
2019-05-07T15:16:18.666Z,18.67
2019-05-07T15:18:44.965Z,21.90
2019-05-07T15:21:12.307Z,15.28
2019-05-07T15:23:38.795Z,14.15
2019-05-07T15:26:05.053Z,15.80
2019-05-07T15:28:32.318Z,16.60
2019-05-07T15:30:58.707Z,20.02
2019-05-07T15:33:24.971Z,15.38
2019-05-07T15:35:52.031Z,14.90
2019-05-07T15:38:18.625Z,14.63
2019-05-07T15:40:44.916Z,19.10
2019-05-07T15:43:12.883Z,18.35
2019-05-07T15:45:39.253Z,15.63
2019-05-07T15:48:05.553Z,13.25
2019-05-07T15:50:32.210Z,14.05
2019-05-07T15:52:58.937Z,12.78
2019-05-07T15:55:25.382Z,16.87
2019-05-07T15:57:52.154Z,13.45
2019-05-07T16:00:21.785Z,14.58
2019-05-07T16:02:48.249Z,12.50
2019-05-07T16:05:14.569Z,15.70
2019-05-07T16:07:41.947Z,15.83
2019-05-07T16:10:08.400Z,13.78
2019-05-07T16:12:34.713Z,11.93
2019-05-07T16:15:02.983Z,15.60
2019-05-07T16:17:29.000Z,16.52
2019-05-07T16:19:55.298Z,11.70
2019-05-07T16:22:22.223Z,14.33
2019-05-07T16:24:48.619Z,13.22
2019-05-07T16:27:14.905Z,11.63
2019-05-07T16:29:42.104Z,17.00
2019-05-07T16:32:08.589Z,11.83
2019-05-07T16:34:34.858Z,13.32
2019-05-07T16:37:03.498Z,11.35
2019-05-07T16:39:29.186Z,12.82
2019-05-07T16:41:55.571Z,12.23
2019-05-07T16:44:22.522Z,16.80
2019-05-07T16:46:49.039Z,14.90
2019-05-07T16:49:15.375Z,14.87
2019-05-07T16:51:44.571Z,13.68
2019-05-07T16:54:12.010Z,17.98
2019-05-07T16:56:37.826Z,15.32
2019-05-07T16:59:04.157Z,15.45
2019-05-07T17:01:32.419Z,15.65
2019-05-07T17:03:58.469Z,14.80
2019-05-07T17:06:25.213Z,14.33
2019-05-07T17:08:51.806Z,12.55
2019-05-07T17:11:18.105Z,15.40
2019-05-07T17:13:44.707Z,13.98
2019-05-07T17:16:12.363Z,14.40
2019-05-07T17:18:39.021Z,13.40
2019-05-07T17:21:05.381Z,11.97
2019-05-07T17:23:43.664Z,13.62
2019-05-07T17:25:59.742Z,12.30
2019-05-07T17:28:28.386Z,14.78
2019-05-07T17:30:54.683Z,19.77
2019-05-07T17:33:22.993Z,11.57
2019-05-07T17:35:49.106Z,13.00
2019-05-07T17:38:15.388Z,11.60
2019-05-07T17:40:42.394Z,14.38
2019-05-07T17:43:08.844Z,15.83
2019-05-07T17:45:35.157Z,13.30
2019-05-07T17:48:03.147Z,18.00
2019-05-07T17:50:29.432Z,14.35
2019-05-07T17:52:55.699Z,13.93
2019-05-07T17:55:22.363Z,10.32
2019-05-07T17:57:48.766Z,16.37
2019-05-07T18:00:15.118Z,19.00
2019-05-07T18:02:42.147Z,10.90
2019-05-07T18:05:08.580Z,12.15
2019-05-07T18:07:36.798Z,15.95
2019-05-07T18:10:02.908Z,14.13
2019-05-07T18:12:29.255Z,11.63
2019-05-07T18:14:55.622Z,14.87
2019-05-07T18:17:22.058Z,16.12
2019-05-07T18:19:48.508Z,13.53
2019-05-07T18:22:14.794Z,14.00
2019-05-07T18:24:41.959Z,10.50
2019-05-07T18:27:08.390Z,16.55
2019-05-07T18:29:34.810Z,10.15
2019-05-07T18:32:01.070Z,16.42
2019-05-07T18:34:27.407Z,14.28
2019-05-07T18:36:53.741Z,14.45
2019-05-07T18:39:20.480Z,12.13
2019-05-07T18:41:52.144Z,14.05
2019-05-07T18:44:18.196Z,12.78
2019-05-07T18:46:44.647Z,13.70
2019-05-07T18:49:12.985Z,20.27
2019-05-07T18:51:39.312Z,18.23
2019-05-07T18:54:05.605Z,24.07
2019-05-07T18:56:31.943Z,20.88
2019-05-07T18:58:58.217Z,20.75
2019-05-07T19:01:24.970Z,23.62
2019-05-07T19:03:52.554Z,23.45
2019-05-07T19:06:19.132Z,21.73
2019-05-07T19:08:45.432Z,24.98
2019-05-07T19:11:12.380Z,20.08
2019-05-07T19:13:38.902Z,22.07
2019-05-07T19:16:05.240Z,19.52
2019-05-07T19:18:32.192Z,18.42
2019-05-07T19:20:58.650Z,20.40
2019-05-07T19:23:24.992Z,21.02
2019-05-07T19:25:52.268Z,18.05
2019-05-07T19:28:19.139Z,18.57
2019-05-07T19:30:45.471Z,15.68
2019-05-07T19:33:12.456Z,22.10
2019-05-07T19:35:38.945Z,18.23
2019-05-07T19:38:05.401Z,20.30
2019-05-07T19:40:32.548Z,21.07
2019-05-07T19:42:58.997Z,15.20
2019-05-07T19:45:25.283Z,16.17
2019-05-07T19:47:52.347Z,20.52
2019-05-07T19:50:18.878Z,15.72
2019-05-07T19:52:45.445Z,17.32
2019-05-07T19:55:11.752Z,22.05
2019-05-07T19:57:38.143Z,21.12
2019-05-07T20:00:04.437Z,20.85
2019-05-07T20:02:32.112Z,18.12
2019-05-07T20:04:58.620Z,23.85
2019-05-07T20:07:25.039Z,17.67
2019-05-07T20:09:52.470Z,17.65
2019-05-07T20:12:19.253Z,22.35
2019-05-07T20:14:45.619Z,18.15
2019-05-07T20:17:12.346Z,20.05
2019-05-07T20:19:38.959Z,19.92
2019-05-07T20:22:05.326Z,19.80
2019-05-07T20:24:32.960Z,23.10
2019-05-07T20:26:59.523Z,22.90
2019-05-07T20:29:25.842Z,18.98
2019-05-07T20:31:53.269Z,20.08
2019-05-07T20:34:22.004Z,23.67
2019-05-07T20:36:47.843Z,26.70
2019-05-07T20:39:14.137Z,23.67
2019-05-07T20:41:40.439Z,24.43
2019-05-07T20:44:08.443Z,21.62
2019-05-07T20:46:34.735Z,20.52
2019-05-07T20:49:02.762Z,18.85
2019-05-07T20:51:29.006Z,16.55
2019-05-07T20:53:55.400Z,18.07
2019-05-07T20:56:22.575Z,17.60
2019-05-07T20:58:48.972Z,15.43
2019-05-07T21:01:15.295Z,17.45
2019-05-07T21:03:42.904Z,16.15
2019-05-07T21:06:09.371Z,17.48
2019-05-07T21:08:35.761Z,17.85
2019-05-07T21:11:02.658Z,18.37
2019-05-07T21:13:32.443Z,17.15
2019-05-07T21:15:57.211Z,16.80
2019-05-07T21:18:23.621Z,15.18
2019-05-07T21:20:50.127Z,14.05
2019-05-07T21:23:18.458Z,15.00
2019-05-07T21:25:46.061Z,22.85
2019-05-07T21:28:12.528Z,14.98
2019-05-07T21:30:38.803Z,14.43
2019-05-07T21:33:05.063Z,20.65
2019-05-07T21:35:31.989Z,14.68
2019-05-07T21:37:58.555Z,18.07
2019-05-07T21:40:25.113Z,19.15
2019-05-07T21:42:52.063Z,16.32
2019-05-07T21:45:18.570Z,19.02
2019-05-07T21:47:44.963Z,18.50
2019-05-07T21:50:12.458Z,16.97
2019-05-07T21:52:39.507Z,23.95
2019-05-07T21:55:05.915Z,15.63
2019-05-07T21:57:32.979Z,19.40
2019-05-07T22:00:02.282Z,18.12
2019-05-07T22:02:28.666Z,19.55
2019-05-07T22:04:54.943Z,21.10
2019-05-07T22:07:22.768Z,19.95
2019-05-07T22:09:49.186Z,16.95
2019-05-07T22:12:15.431Z,18.50
2019-05-07T22:14:41.702Z,20.08
2019-05-07T22:17:08.049Z,16.70
2019-05-07T22:19:34.329Z,20.10
2019-05-07T22:22:02.777Z,19.90
2019-05-07T22:24:28.602Z,16.70
2019-05-07T22:26:54.867Z,18.23
2019-05-07T22:29:22.771Z,14.05
2019-05-07T22:31:49.323Z,15.30
2019-05-07T22:34:15.579Z,16.00
2019-05-07T22:36:43.129Z,18.37
2019-05-07T22:39:09.607Z,15.03
2019-05-07T22:41:35.889Z,14.55
2019-05-07T22:44:02.650Z,15.88
2019-05-07T22:46:29.081Z,17.67
2019-05-07T22:48:55.381Z,16.32
2019-05-07T22:51:22.847Z,17.40
2019-05-07T22:53:49.310Z,15.80
2019-05-07T22:56:15.573Z,22.00
2019-05-07T22:58:42.049Z,16.55
2019-05-07T23:01:08.405Z,23.00
2019-05-07T23:03:34.701Z,17.75
2019-05-07T23:06:02.726Z,16.62
2019-05-07T23:08:29.204Z,17.67
2019-05-07T23:10:55.498Z,18.52
2019-05-07T23:13:22.613Z,20.80
2019-05-07T23:15:49.025Z,17.98
2019-05-07T23:18:15.284Z,16.07
2019-05-07T23:20:42.712Z,18.12
2019-05-07T23:23:09.293Z,17.32
2019-05-07T23:25:35.583Z,18.67
2019-05-07T23:28:04.881Z,20.00
2019-05-07T23:30:29.861Z,17.98
2019-05-07T23:32:56.174Z,19.60
2019-05-07T23:35:22.451Z,17.48
2019-05-07T23:37:48.709Z,20.90
2019-05-07T23:40:15.006Z,16.90
2019-05-07T23:42:42.377Z,17.85
2019-05-07T23:45:08.867Z,18.40
2019-05-07T23:47:35.369Z,15.95
2019-05-07T23:50:02.126Z,17.20
2019-05-07T23:52:28.511Z,17.05
2019-05-07T23:54:54.829Z,15.35
2019-05-07T23:57:23.352Z,17.73
2019-05-07T23:59:50.045Z,19.05
